Time;durP1;ratioP1;P1;durP2;ratioP2;P2;SDS_P1;SDS_P2;PMS_P1;PMS_P2;Temp;Humidity;BMP_temperature;BMP_pressure;BME280_temperature;BME280_humidity;BME280_pressure;Samples;Min_cycle;Max_cycle;Signal;HPM_P1;HPM_P2
2022/06/18 00:00:12;;;;;;;5.43;2.80;;;;;;;18.04;56.37;101434.91;5030076;28;20038;-51
2022/06/18 00:02:41;;;;;;;4.53;2.35;;;;;;;18.01;56.17;101433.25;5029826;28;20053;-51
2022/06/18 00:05:12;;;;;;;4.78;2.85;;;;;;;18.02;56.41;101431.47;5030370;28;20053;-51
2022/06/18 00:07:47;;;;;;;7.68;2.50;;;;;;;18.02;56.37;101429.72;5028886;28;20144;-51
2022/06/18 00:10:25;;;;;;;;;;;;;;;17.96;56.48;101429.88;5030406;28;20056;-51
2022/06/18 00:16:09;;;;;;;5.32;2.17;;;;;;;17.95;56.40;101422.94;5007603;28;20097;-54
2022/06/18 00:18:41;;;;;;;4.10;2.80;;;;;;;17.98;56.39;101422.84;5010056;28;20126;-52
2022/06/18 00:21:16;;;;;;;4.30;2.47;;;;;;;17.98;56.46;101417.59;5030075;28;20067;-54
2022/06/18 00:23:45;;;;;;;5.00;2.53;;;;;;;17.96;56.59;101419.41;5029097;28;20094;-54
2022/06/18 00:26:16;;;;;;;3.78;2.50;;;;;;;17.97;56.71;101418.50;5029633;28;20053;-54
2022/06/18 00:28:58;;;;;;;4.35;2.53;;;;;;;17.95;56.51;101417.69;5029775;28;20061;-50
2022/06/18 00:31:35;;;;;;;4.50;2.70;;;;;;;17.90;56.70;101415.19;5029857;28;20132;-52
2022/06/18 00:34:03;;;;;;;3.40;2.45;;;;;;;17.89;56.96;101415.22;5029495;28;20061;-54
2022/06/18 00:36:36;;;;;;;4.47;2.55;;;;;;;17.87;57.15;101417.03;5029437;28;20381;-51
2022/06/18 00:39:09;;;;;;;4.70;2.67;;;;;;;17.87;57.22;101414.41;5026867;28;20580;-50
2022/06/18 00:41:42;;;;;;;4.10;2.38;;;;;;;17.86;57.18;101413.56;5029704;28;20133;-52
2022/06/18 00:44:28;;;;;;;3.05;2.40;;;;;;;17.87;57.16;101419.66;5029309;28;20093;-52
2022/06/18 00:47:10;;;;;;;2.63;1.80;;;;;;;17.84;57.09;101410.13;5010017;28;20049;-52
2022/06/18 00:49:45;;;;;;;2.83;2.00;;;;;;;17.84;57.07;101414.50;5018345;28;20042;-51
2022/06/18 00:52:25;;;;;;;4.18;2.30;;;;;;;17.83;56.98;101412.78;5029687;28;20049;-54
2022/06/18 00:55:03;;;;;;;3.97;1.92;;;;;;;17.83;57.06;101408.41;5027638;28;20053;-53
2022/06/18 00:57:42;;;;;;;4.90;2.33;;;;;;;17.83;57.04;101413.63;5024707;28;20142;-51
2022/06/18 01:00:37;;;;;;;4.07;2.20;;;;;;;17.84;56.96;101407.50;5028714;28;20067;-53
2022/06/18 01:03:10;;;;;;;7.65;2.80;;;;;;;17.83;57.23;101412.78;5029220;28;20149;-52
2022/06/18 01:05:48;;;;;;;5.30;2.35;;;;;;;17.83;56.89;101412.78;5029559;28;20480;-53
2022/06/18 01:08:19;;;;;;;5.82;2.40;;;;;;;17.83;57.06;101407.53;5028994;28;20088;-54
2022/06/18 01:10:52;;;;;;;4.75;2.20;;;;;;;17.82;56.77;101408.44;5027753;28;20510;-51
2022/06/18 01:13:24;;;;;;;3.00;2.40;;;;;;;17.81;56.92;101409.34;5029324;28;20055;-50
2022/06/18 01:15:59;;;;;;;3.78;2.47;;;;;;;17.79;57.09;101400.66;5029195;28;20142;-51
2022/06/18 01:18:31;;;;;;;4.40;2.20;;;;;;;17.78;56.86;101394.56;5029265;28;20084;-52
2022/06/18 01:21:12;;;;;;;4.03;2.13;;;;;;;17.79;56.80;101393.66;5026956;28;20054;-53
2022/06/18 01:23:51;;;;;;;3.65;2.10;;;;;;;17.79;56.73;101395.41;5029364;28;20060;-51
2022/06/18 01:26:36;;;;;;;3.00;1.92;;;;;;;17.79;56.48;101403.28;5027805;28;20757;-54
2022/06/18 01:29:07;;;;;;;3.17;1.73;;;;;;;17.77;56.51;101397.22;5029281;28;20433;-51
2022/06/18 01:31:37;;;;;;;3.25;1.80;;;;;;;17.77;56.50;101387.59;5028585;28;20122;-50
2022/06/18 01:34:16;;;;;;;3.40;1.85;;;;;;;17.78;56.25;101388.44;5028581;28;20363;-51
2022/06/18 01:36:53;;;;;;;2.97;1.50;;;;;;;17.78;56.10;101377.97;5028737;28;20054;-54
2022/06/18 01:39:23;;;;;;;2.33;1.48;;;;;;;17.78;55.95;101384.06;5026971;28;20050;-53
2022/06/18 01:42:17;;;;;;;2.65;1.48;;;;;;;17.81;55.58;101372.63;5028134;28;20049;-54
2022/06/18 01:44:52;;;;;;;2.00;1.27;;;;;;;17.82;55.60;101374.34;5030037;28;20103;-50
2022/06/18 01:47:30;;;;;;;2.20;1.33;;;;;;;17.83;55.23;101371.69;5013070;28;20095;-50
2022/06/18 01:50:11;;;;;;;3.28;1.50;;;;;;;17.89;54.93;101370.66;5024363;28;20413;-51
2022/06/18 01:52:46;;;;;;;2.05;1.23;;;;;;;17.91;54.70;101368.84;5032449;28;20053;-52
2022/06/18 01:55:17;;;;;;;4.25;1.40;;;;;;;17.94;54.53;101368.75;5032438;28;20505;-51
2022/06/18 01:57:55;;;;;;;2.38;1.40;;;;;;;17.95;54.44;101360.84;5031346;28;20053;-54
2022/06/18 02:00:27;;;;;;;1.83;1.10;;;;;;;17.97;54.40;101363.41;5031709;28;20466;-51
2022/06/18 02:03:04;;;;;;;2.03;1.02;;;;;;;17.98;54.34;101360.75;5032580;28;20045;-51
2022/06/18 02:05:41;;;;;;;2.50;1.10;;;;;;;18.00;54.35;101352.81;5031775;28;20063;-51
2022/06/18 02:08:18;;;;;;;1.70;1.25;;;;;;;18.01;53.98;101351.06;5032244;28;20061;-51
2022/06/18 02:10:55;;;;;;;1.60;0.80;;;;;;;18.03;53.81;101347.50;5031821;28;20485;-50
2022/06/18 02:13:29;;;;;;;2.22;1.38;;;;;;;18.05;53.66;101340.44;5031003;28;20135;-51
2022/06/18 02:16:03;;;;;;;2.47;1.02;;;;;;;18.06;53.57;101330.81;5032765;28;20152;-53
2022/06/18 02:18:37;;;;;;;1.77;0.80;;;;;;;18.07;53.68;101327.28;5033385;28;20222;-50
2022/06/18 02:21:11;;;;;;;2.90;1.10;;;;;;;18.07;53.49;101333.38;5034273;28;20129;-54
2022/06/18 02:23:42;;;;;;;1.05;0.80;;;;;;;18.09;53.62;101326.31;5035648;28;20401;-53
2022/06/18 02:29:09;;;;;;;3.58;1.00;;;;;;;18.12;53.29;101310.47;5018995;28;20064;-52
2022/06/18 02:31:48;;;;;;;2.17;0.93;;;;;;;18.11;53.66;101308.75;5032937;28;20049;-54
2022/06/18 02:37:43;;;;;;;1.33;0.82;;;;;;;18.16;53.48;101317.34;5036162;28;20049;-51
2022/06/18 02:40:27;;;;;;;2.22;0.90;;;;;;;18.16;53.22;101300.75;5034030;28;20045;-52
2022/06/18 02:43:05;;;;;;;1.58;0.93;;;;;;;18.17;53.10;101307.72;5028741;28;20061;-52
2022/06/18 02:46:01;;;;;;;3.08;1.30;;;;;;;18.19;53.13;101305.91;5025679;28;20373;-53
2022/06/18 02:48:34;;;;;;;2.63;1.10;;;;;;;18.19;52.95;101305.91;5034808;28;20451;-50
2022/06/18 02:51:03;;;;;;;1.52;1.10;;;;;;;18.18;52.96;101307.66;5028464;28;20080;-50
2022/06/18 02:53:33;;;;;;;2.30;1.25;;;;;;;18.22;53.04;101301.44;5035134;28;20049;-50
2022/06/18 02:56:06;;;;;;;1.40;0.82;;;;;;;18.25;52.69;101306.59;5033161;28;20057;-50
2022/06/18 02:58:37;;;;;;;2.03;1.13;;;;;;;18.27;52.64;101304.78;5034874;28;20049;-50
2022/06/18 03:01:22;;;;;;;2.17;1.10;;;;;;;18.30;52.44;101303.84;5033784;28;20132;-50
2022/06/18 03:03:51;;;;;;;1.60;1.00;;;;;;;18.28;52.59;101301.25;5014982;28;20061;-50
2022/06/18 03:06:22;;;;;;;2.78;1.20;;;;;;;18.32;52.48;101302.03;5032471;28;20084;-49
2022/06/18 03:08:51;;;;;;;4.32;1.20;;;;;;;18.36;52.26;101294.91;5034899;28;20466;-50
2022/06/18 03:14:11;;;;;;;2.65;1.23;;;;;;;18.39;52.46;101294.81;5028374;28;20168;-50
2022/06/18 03:16:52;;;;;;;2.20;1.23;;;;;;;18.42;52.31;101297.34;5034771;28;20162;-54
2022/06/18 03:19:30;;;;;;;3.20;2.10;;;;;;;18.43;52.16;101292.03;5032587;28;20366;-50
2022/06/18 03:22:13;;;;;;;1.75;1.00;;;;;;;18.45;52.07;101298.09;5034324;28;20132;-52
2022/06/18 03:24:44;;;;;;;2.65;1.10;;;;;;;18.50;52.12;101295.31;5034579;28;20085;-50
2022/06/18 03:27:15;;;;;;;1.65;1.20;;;;;;;18.52;52.08;101294.38;5033648;28;20054;-51
2022/06/18 03:29:46;;;;;;;2.40;1.00;;;;;;;18.56;51.84;101300.38;5034403;28;20049;-53
2022/06/18 03:32:29;;;;;;;1.60;1.08;;;;;;;18.59;51.81;101303.75;5034730;28;20088;-52
2022/06/18 03:34:59;;;;;;;2.38;1.08;;;;;;;18.62;51.82;101300.19;5034365;28;20537;-53
2022/06/18 03:37:29;;;;;;;1.50;0.88;;;;;;;18.64;51.94;101297.53;5034484;28;20060;-52
2022/06/18 03:40:03;;;;;;;2.42;1.10;;;;;;;18.66;52.06;101296.56;5034344;28;20156;-54
2022/06/18 03:42:33;;;;;;;2.03;1.10;;;;;;;18.68;52.24;101301.75;5033836;28;20127;-54
2022/06/18 03:45:01;;;;;;;1.67;0.80;;;;;;;18.70;52.19;101299.94;5032502;28;20083;-50
2022/06/18 03:47:32;;;;;;;1.45;0.90;;;;;;;18.71;52.04;101299.91;5034424;28;20144;-50
2022/06/18 03:49:59;;;;;;;1.38;0.90;;;;;;;18.70;52.01;101300.81;5034040;28;20049;-53
2022/06/18 03:52:37;;;;;;;2.63;1.02;;;;;;;18.71;52.22;101305.16;5034168;28;20216;-50
2022/06/18 03:55:05;;;;;;;1.77;0.80;;;;;;;18.71;52.51;101307.78;5033755;28;20678;-52
2022/06/18 03:57:34;;;;;;;1.75;0.80;;;;;;;18.72;52.74;101306.00;5034079;28;20128;-54
2022/06/18 04:00:10;;;;;;;1.25;0.82;;;;;;;18.70;53.15;101303.44;5034033;28;20054;-53
2022/06/18 04:02:41;;;;;;;3.10;1.00;;;;;;;18.72;53.58;101311.25;5034003;28;20063;-53
2022/06/18 04:05:19;;;;;;;2.67;0.90;;;;;;;18.72;53.90;101309.50;5033257;28;20053;-50
2022/06/18 04:07:49;;;;;;;1.60;0.70;;;;;;;18.73;54.29;101305.97;5033285;28;20128;-50
2022/06/18 04:10:19;;;;;;;1.77;1.08;;;;;;;18.72;54.65;101301.63;5034226;28;20576;-52
2022/06/18 04:12:47;;;;;;;2.10;1.00;;;;;;;18.72;54.99;101301.63;5033312;28;20161;-50
2022/06/18 04:15:19;;;;;;;2.08;0.80;;;;;;;18.73;55.43;101298.09;5033481;28;20136;-53
2022/06/18 04:17:48;;;;;;;1.52;1.00;;;;;;;18.73;55.63;101298.09;5033421;28;20046;-53
2022/06/18 04:20:29;;;;;;;1.80;1.00;;;;;;;18.74;55.91;101298.97;5032476;28;20144;-52
2022/06/18 04:22:57;;;;;;;1.50;1.00;;;;;;;18.73;56.07;101298.09;5023420;28;20053;-51
2022/06/18 04:25:28;;;;;;;2.80;0.80;;;;;;;18.75;56.11;101298.91;5032017;28;20140;-53
2022/06/18 04:28:05;;;;;;;1.45;0.88;;;;;;;18.76;56.06;101292.75;5032499;28;20119;-50
2022/06/18 04:30:38;;;;;;;1.67;0.88;;;;;;;18.77;56.19;101289.22;5032662;28;20060;-52
2022/06/18 04:33:10;;;;;;;3.17;1.38;;;;;;;18.77;56.37;101289.22;5033220;28;20057;-52
2022/06/18 04:35:40;;;;;;;3.05;1.23;;;;;;;18.78;56.78;101287.44;5033315;28;20485;-53
2022/06/18 04:38:11;;;;;;;1.65;1.10;;;;;;;18.77;56.88;101278.72;5033413;28;20049;-53
2022/06/18 04:40:39;;;;;;;1.85;1.10;;;;;;;18.78;57.08;101275.19;5032722;28;20126;-50
2022/06/18 04:43:10;;;;;;;2.40;1.63;;;;;;;18.77;56.88;101273.47;5033179;28;20064;-50
2022/06/18 04:45:41;;;;;;;2.20;1.10;;;;;;;18.74;56.89;101270.94;5032936;28;20087;-50
2022/06/18 04:48:15;;;;;;;2.50;1.30;;;;;;;18.74;57.17;101278.81;5032195;28;20368;-50
2022/06/18 04:50:43;;;;;;;1.70;1.10;;;;;;;18.74;57.54;101280.59;5030763;28;20788;-52
2022/06/18 04:53:19;;;;;;;1.83;1.10;;;;;;;18.75;57.95;101290.19;5031094;28;20139;-53
2022/06/18 04:55:48;;;;;;;2.63;1.48;;;;;;;18.76;58.06;101287.50;5032937;28;20057;-52
2022/06/18 04:58:21;;;;;;;2.25;1.27;;;;;;;18.75;58.31;101275.28;5032818;28;20053;-50
2022/06/18 05:00:57;;;;;;;2.03;1.23;;;;;;;18.76;58.46;101282.25;5032076;28;20037;-50
2022/06/18 05:03:28;;;;;;;3.47;1.20;;;;;;;18.73;58.45;101271.84;5031516;28;20045;-51
2022/06/18 05:06:01;;;;;;;3.78;1.80;;;;;;;18.73;58.95;101271.84;5032766;28;20638;-50
2022/06/18 05:08:37;;;;;;;2.78;1.55;;;;;;;18.74;59.12;101263.06;5032966;28;20060;-50
2022/06/18 05:11:13;;;;;;;2.20;1.40;;;;;;;18.74;59.09;101263.06;5033143;28;20080;-50
2022/06/18 05:13:43;;;;;;;2.63;1.27;;;;;;;18.74;59.21;101257.81;5032728;28;20129;-52
2022/06/18 05:16:14;;;;;;;2.17;1.23;;;;;;;18.77;59.15;101249.81;5032640;28;20099;-53
2022/06/18 05:18:48;;;;;;;2.17;1.38;;;;;;;18.80;58.98;101241.84;5031866;28;20049;-54
2022/06/18 05:21:24;;;;;;;3.10;1.50;;;;;;;18.82;58.97;101242.66;5030030;28;20497;-53
2022/06/18 05:23:55;;;;;;;2.83;1.38;;;;;;;18.88;59.47;101250.31;5036422;28;20061;-50
2022/06/18 05:26:37;;;;;;;2.28;1.52;;;;;;;18.92;59.44;101241.41;5036612;28;20060;-53
2022/06/18 05:29:05;;;;;;;2.40;1.33;;;;;;;18.98;59.72;101237.72;5036232;28;20049;-50
2022/06/18 05:31:34;;;;;;;2.70;1.50;;;;;;;19.06;59.58;101250.56;5034815;28;20124;-51
2022/06/18 05:34:20;;;;;;;3.80;1.67;;;;;;;19.12;59.75;101234.59;5036311;28;20080;-51
2022/06/18 05:36:49;;;;;;;4.18;1.95;;;;;;;19.16;59.39;101238.81;5036458;28;20057;-51
2022/06/18 05:39:22;;;;;;;4.32;2.13;;;;;;;19.21;58.88;101231.63;5035840;28;20053;-54
2022/06/18 05:41:52;;;;;;;2.85;1.83;;;;;;;19.28;58.81;101217.38;5023874;28;20049;-53
2022/06/18 05:44:24;;;;;;;3.38;1.90;;;;;;;19.36;58.81;101217.94;5036829;28;20045;-53
2022/06/18 05:46:53;;;;;;;2.75;2.10;;;;;;;19.41;58.64;101218.63;5036394;28;20716;-51
2022/06/18 05:49:23;;;;;;;3.58;1.98;;;;;;;19.46;58.32;101219.31;5036576;28;20139;-50
2022/06/18 05:51:51;;;;;;;4.03;2.20;;;;;;;19.50;58.29;101225.31;5036187;28;20132;-51
2022/06/18 05:54:18;;;;;;;3.03;1.85;;;;;;;19.53;58.30;101227.84;5035688;28;20156;-52
2022/06/18 05:56:50;;;;;;;4.88;2.20;;;;;;;19.57;58.17;101229.47;5036272;28;20061;-54
2022/06/18 05:59:28;;;;;;;3.58;2.25;;;;;;;19.61;58.24;101224.94;5036493;28;20064;-53
2022/06/18 06:01:56;;;;;;;4.78;2.63;;;;;;;19.66;58.20;101217.72;5035796;28;20045;-51
2022/06/18 06:04:28;;;;;;;3.95;2.85;;;;;;;19.73;57.97;101208.69;5034783;28;20045;-53
2022/06/18 06:06:57;;;;;;;3.40;2.75;;;;;;;19.81;57.85;101206.63;5035845;28;20061;-50
2022/06/18 06:12:14;;;;;;;4.85;2.88;;;;;;;19.96;57.05;101200.75;5025276;28;20076;-53
2022/06/18 06:14:56;;;;;;;5.53;2.97;;;;;;;20.02;56.30;101187.34;5035764;28;20061;-50
2022/06/18 06:17:29;;;;;;;6.43;3.05;;;;;;;20.09;56.06;101190.59;5035946;28;20057;-54
2022/06/18 06:20:09;;;;;;;6.45;3.88;;;;;;;20.11;55.22;101179.09;5034601;28;20607;-52
2022/06/18 06:22:46;;;;;;;5.30;3.38;;;;;;;20.13;55.02;101177.25;5035314;28;20478;-54
2022/06/18 06:25:17;;;;;;;4.72;3.38;;;;;;;20.15;55.21;101174.56;5034982;28;20069;-52
2022/06/18 06:27:44;;;;;;;7.18;3.22;;;;;;;20.22;55.16;101175.16;5033606;28;20057;-50
2022/06/18 06:30:19;;;;;;;4.72;3.45;;;;;;;20.27;55.09;101167.91;5035175;28;20144;-51
2022/06/18 06:32:47;;;;;;;4.68;3.30;;;;;;;20.28;54.54;101159.09;5035266;28;20119;-51
2022/06/18 06:35:22;;;;;;;5.18;2.60;;;;;;;20.28;54.15;101159.09;5034277;28;20413;-51
2022/06/18 06:37:51;;;;;;;4.97;3.20;;;;;;;20.26;54.34;101150.41;5034910;28;20451;-54
2022/06/18 06:40:20;;;;;;;5.10;2.67;;;;;;;20.27;54.48;101154.75;5034385;28;20136;-50
2022/06/18 06:42:52;;;;;;;5.15;3.00;;;;;;;20.28;54.43;101151.22;5034740;28;20057;-52
2022/06/18 06:45:28;;;;;;;2.95;2.03;;;;;;;20.30;54.71;101152.03;5034825;28;20076;-50
2022/06/18 06:48:06;;;;;;;4.25;2.20;;;;;;;20.31;54.53;101140.56;5035112;28;20135;-50
2022/06/18 06:50:38;;;;;;;4.50;2.38;;;;;;;20.34;54.43;101143.09;5035136;28;20090;-52
2022/06/18 06:53:05;;;;;;;3.85;2.15;;;;;;;20.36;54.72;101142.09;5035453;28;20132;-50
2022/06/18 06:58:22;;;;;;;4.63;2.42;;;;;;;20.40;54.48;101132.31;5035061;28;20527;-52
2022/06/18 07:00:55;;;;;;;4.22;2.25;;;;;;;20.41;54.78;101124.34;5034644;28;20058;-52
2022/06/18 07:03:27;;;;;;;3.88;1.90;;;;;;;20.44;54.75;101123.38;5034058;28;20061;-52
2022/06/18 07:06:10;;;;;;;4.70;2.30;;;;;;;20.50;55.01;101112.56;5026106;28;20065;-50
2022/06/18 07:08:41;;;;;;;3.00;1.95;;;;;;;20.55;55.16;101110.59;5034534;28;20143;-52
2022/06/18 07:11:20;;;;;;;2.92;1.70;;;;;;;20.65;54.95;101106.63;5034544;28;20473;-50
2022/06/18 07:13:51;;;;;;;4.70;2.20;;;;;;;20.72;54.79;101097.50;5033920;28;20188;-50
2022/06/18 07:16:21;;;;;;;4.20;2.15;;;;;;;20.82;54.58;101090.09;5034554;28;20053;-52
2022/06/18 07:18:52;;;;;;;3.83;2.30;;;;;;;20.95;54.84;101079.84;5034086;28;20049;-52
2022/06/18 07:21:35;;;;;;;3.88;2.17;;;;;;;21.09;54.97;101074.78;5033992;28;20041;-52
2022/06/18 07:24:06;;;;;;;5.63;2.20;;;;;;;21.24;54.69;101078.50;5034417;28;20461;-53
2022/06/18 07:26:35;;;;;;;4.55;2.15;;;;;;;21.35;54.60;101077.09;5033825;28;20438;-51
2022/06/18 07:29:04;;;;;;;3.33;2.20;;;;;;;21.46;54.57;101073.09;5033580;28;20055;-50
2022/06/18 07:31:37;;;;;;;3.45;2.25;;;;;;;21.57;54.36;101076.06;5030077;28;20351;-52
2022/06/18 07:34:07;;;;;;;5.78;2.60;;;;;;;21.61;54.23;101080.25;5034334;28;20500;-50
2022/06/18 07:36:37;;;;;;;4.53;2.33;;;;;;;21.63;54.14;101075.75;5034402;28;20064;-52
2022/06/18 07:39:05;;;;;;;4.25;2.20;;;;;;;21.64;54.00;101067.75;5034120;28;20055;-50
2022/06/18 07:41:37;;;;;;;3.90;2.30;;;;;;;21.67;54.01;101066.75;5032194;28;20049;-51
2022/06/18 07:44:05;;;;;;;3.25;2.10;;;;;;;21.69;54.15;101064.91;5032918;28;20469;-49
2022/06/18 07:46:36;;;;;;;5.40;2.20;;;;;;;21.74;54.39;101061.09;5033581;28;20053;-50
2022/06/18 07:49:13;;;;;;;3.15;2.10;;;;;;;21.79;54.23;101063.50;5033995;28;20049;-50
2022/06/18 07:51:49;;;;;;;3.28;2.42;;;;;;;21.83;54.37;101062.41;5033627;28;20045;-52
2022/06/18 07:54:19;;;;;;;2.67;1.88;;;;;;;21.86;54.96;101057.03;5034157;28;20081;-51
2022/06/18 07:56:49;;;;;;;4.15;2.20;;;;;;;21.89;54.96;101056.88;5033775;28;20493;-53
2022/06/18 07:59:20;;;;;;;3.80;2.28;;;;;;;21.94;54.99;101049.56;5032642;28;20064;-50
2022/06/18 08:01:48;;;;;;;4.68;2.47;;;;;;;21.97;54.78;101049.41;5033550;28;20053;-49
2022/06/18 08:04:15;;;;;;;5.20;2.28;;;;;;;22.02;54.39;101057.09;5033971;28;20076;-51
2022/06/18 08:06:47;;;;;;;3.88;2.25;;;;;;;22.07;54.39;101038.41;5033674;28;20060;-50
2022/06/18 08:09:16;;;;;;;4.63;2.40;;;;;;;22.15;54.42;101041.50;5033999;28;20076;-51
2022/06/18 08:11:46;;;;;;;5.07;2.20;;;;;;;22.23;54.07;101026.97;5032133;28;20049;-52
2022/06/18 08:14:16;;;;;;;3.88;2.22;;;;;;;22.33;53.92;101024.69;5033688;28;20045;-52
2022/06/18 08:16:45;;;;;;;3.83;2.40;;;;;;;22.43;53.63;101020.66;5033303;28;20092;-50
2022/06/18 08:19:17;;;;;;;3.42;2.10;;;;;;;22.49;53.08;101012.41;5013704;28;20418;-52
2022/06/18 08:21:47;;;;;;;3.85;2.33;;;;;;;22.54;52.63;101013.03;5032760;28;20164;-52
2022/06/18 08:24:21;;;;;;;3.35;2.30;;;;;;;22.58;52.34;101016.34;5033473;28;20377;-54
2022/06/18 08:26:59;;;;;;;3.33;2.20;;;;;;;22.61;52.46;101003.81;5033614;28;20054;-53
2022/06/18 08:29:30;;;;;;;3.38;2.50;;;;;;;22.67;52.66;101002.63;5033168;28;20068;-51
2022/06/18 08:31:59;;;;;;;3.72;2.40;;;;;;;22.74;52.33;101004.00;5032186;28;20037;-50
2022/06/18 08:34:30;;;;;;;2.92;2.00;;;;;;;22.78;51.95;101000.25;5033450;28;20045;-53
2022/06/18 08:37:07;;;;;;;4.05;2.38;;;;;;;22.84;51.60;100993.81;5033503;28;20053;-50
2022/06/18 08:39:38;;;;;;;4.20;2.08;;;;;;;22.88;51.44;101000.63;5030268;28;20119;-53
2022/06/18 08:42:35;;;;;;;4.00;2.28;;;;;;;22.92;51.28;101008.34;5033365;28;20041;-53
2022/06/18 08:45:34;;;;;;;5.38;2.38;;;;;;;22.95;50.60;101002.03;5032872;28;20061;-56
2022/06/18 08:48:41;;;;;;;3.00;1.90;;;;;;;23.02;50.48;100998.09;5032542;28;20107;-52
2022/06/18 08:51:27;;;;;;;3.20;1.90;;;;;;;23.08;50.46;100992.47;5029043;28;20049;-56
2022/06/18 08:54:28;;;;;;;3.17;1.90;;;;;;;23.22;50.10;100986.41;5026095;28;20045;-52
2022/06/18 08:57:06;;;;;;;3.38;2.22;;;;;;;23.41;49.73;100978.25;5031216;28;20367;-55
2022/06/18 08:59:48;;;;;;;2.30;1.85;;;;;;;23.59;49.39;100977.22;5032943;28;20053;-52
2022/06/18 09:02:32;;;;;;;2.85;1.92;;;;;;;23.77;48.49;100976.13;5030584;28;20131;-52
2022/06/18 09:05:15;;;;;;;4.18;2.95;;;;;;;23.91;47.73;100973.50;5032889;28;20524;-52
2022/06/18 09:08:21;;;;;;;4.75;1.90;;;;;;;24.01;47.60;100959.75;5033182;28;20630;-51
2022/06/18 09:11:13;;;;;;;3.67;2.05;;;;;;;24.09;47.42;100965.44;5023682;28;20065;-51
2022/06/18 09:13:45;;;;;;;2.88;1.98;;;;;;;24.12;47.43;100946.69;5032828;28;20065;-51
2022/06/18 09:16:19;;;;;;;3.60;1.55;;;;;;;24.18;47.12;100948.97;5032657;28;20057;-55
2022/06/18 09:18:58;;;;;;;3.72;2.00;;;;;;;24.19;47.00;100950.66;5032976;28;20152;-51
2022/06/18 09:21:32;;;;;;;3.13;1.75;;;;;;;24.21;46.83;100943.47;5032689;28;20386;-52
2022/06/18 09:24:04;;;;;;;2.92;1.80;;;;;;;24.21;46.13;100948.78;5033186;28;20061;-51
2022/06/18 09:26:53;;;;;;;5.35;1.70;;;;;;;24.22;45.39;100929.28;5032641;28;20049;-52
2022/06/18 09:29:30;;;;;;;2.72;1.65;;;;;;;24.20;45.62;100926.75;5032989;28;20061;-51
2022/06/18 09:32:01;;;;;;;2.35;1.52;;;;;;;24.20;45.28;100920.59;5033205;28;20049;-52
2022/06/18 09:34:40;;;;;;;2.55;1.55;;;;;;;24.18;45.33;100925.13;5032730;28;20140;-51
2022/06/18 09:37:19;;;;;;;2.13;1.60;;;;;;;24.17;45.20;100910.19;5033247;28;20425;-51
2022/06/18 09:39:51;;;;;;;2.78;1.60;;;;;;;24.19;45.67;100913.59;5032623;28;20388;-51
2022/06/18 09:42:28;;;;;;;5.28;1.83;;;;;;;24.22;45.01;100913.41;5032626;28;20056;-52
2022/06/18 09:45:05;;;;;;;4.72;1.90;;;;;;;24.25;44.93;100907.91;5032522;28;20057;-55
2022/06/18 09:47:41;;;;;;;2.90;1.80;;;;;;;24.32;45.11;100914.56;5033108;28;20060;-51
2022/06/18 09:50:18;;;;;;;3.22;1.60;;;;;;;24.39;44.28;100902.63;5032931;28;20064;-51
2022/06/18 09:52:54;;;;;;;2.85;1.60;;;;;;;24.51;44.83;100908.97;5021123;28;20049;-52
2022/06/18 09:55:28;;;;;;;8.15;1.70;;;;;;;24.65;44.43;100902.78;5032531;28;20057;-50
2022/06/18 09:58:01;;;;;;;2.28;1.40;;;;;;;24.76;44.28;100897.63;5032679;28;20057;-49
2022/06/18 10:00:34;;;;;;;2.88;1.73;;;;;;;24.87;44.28;100884.53;5032398;28;20056;-50
2022/06/18 10:06:52;;;;;;;4.07;1.92;;;;;;;24.98;44.07;100881.22;5032816;28;20053;-50
2022/06/18 10:09:02;;;;;;;3.30;1.52;;;;;;;25.10;43.31;100870.66;5033367;28;20385;-50
2022/06/18 10:11:32;;;;;;;2.33;1.42;;;;;;;25.11;43.19;100872.34;5035968;28;20057;-49
2022/06/18 10:14:11;;;;;;;5.55;1.92;;;;;;;25.13;42.80;100875.75;5035769;28;20077;-52
2022/06/18 10:16:50;;;;;;;2.58;1.50;;;;;;;25.12;42.57;100871.41;5035965;28;20049;-52
2022/06/18 10:19:25;;;;;;;4.05;1.67;;;;;;;25.08;42.80;100872.56;5028833;28;20103;-51
2022/06/18 10:22:03;;;;;;;3.67;1.83;;;;;;;25.06;42.25;100858.53;5027438;28;20049;-50
2022/06/18 10:24:40;;;;;;;2.42;1.60;;;;;;;25.06;42.67;100855.91;5035925;28;20057;-50
2022/06/18 10:27:17;;;;;;;4.15;1.60;;;;;;;25.04;42.51;100855.16;5035430;28;20072;-50
2022/06/18 10:30:07;;;;;;;6.32;1.88;;;;;;;25.02;41.53;100854.41;5035867;28;20454;-53
2022/06/18 10:32:52;;;;;;;2.55;1.40;;;;;;;25.01;41.89;100862.47;5035529;28;20057;-51
2022/06/18 10:36:01;;;;;;;2.83;1.67;;;;;;;25.01;42.01;100865.13;5036153;28;20053;-53
2022/06/18 10:38:51;;;;;;;2.25;1.52;;;;;;;25.06;42.48;100853.25;5035756;28;20481;-49
2022/06/18 10:41:29;;;;;;;5.60;1.45;;;;;;;25.12;42.37;100847.53;5034893;28;20049;-50
2022/06/18 10:44:43;;;;;;;3.80;1.50;;;;;;;25.16;42.51;100841.06;5032925;28;20140;-53
2022/06/18 10:47:19;;;;;;;3.53;1.38;;;;;;;25.21;42.37;100839.91;5028349;28;20053;-50
2022/06/18 10:49:48;;;;;;;2.88;1.63;;;;;;;25.23;42.43;100833.53;5035062;28;20053;-50
2022/06/18 10:52:25;;;;;;;2.40;1.65;;;;;;;25.27;42.28;100831.53;5035090;28;20053;-49
2022/06/18 10:55:07;;;;;;;2.70;1.58;;;;;;;25.30;42.44;100823.34;5035379;28;20053;-50
2022/06/18 10:57:35;;;;;;;4.25;1.77;;;;;;;25.33;42.28;100818.69;5022779;28;20085;-49
2022/06/18 11:00:33;;;;;;;4.15;1.58;;;;;;;25.39;42.20;100812.09;5035277;28;20068;-50
2022/06/18 11:03:05;;;;;;;7.80;1.67;;;;;;;25.44;42.10;100815.28;5034956;28;20045;-50
2022/06/18 11:05:37;;;;;;;2.70;1.58;;;;;;;25.50;42.08;100804.28;5035156;28;20077;-49
2022/06/18 11:08:20;;;;;;;3.03;1.80;;;;;;;25.59;41.82;100795.66;5035483;28;20053;-49
2022/06/18 11:11:15;;;;;;;2.58;1.52;;;;;;;25.68;41.03;100803.03;5023824;28;20116;-49
2022/06/18 11:13:44;;;;;;;;;;;;;;;25.73;40.94;100803.53;5035591;28;20053;-50
2022/06/18 11:16:18;;;;;;;3.15;1.52;;;;;;;25.85;41.18;100799.16;5034014;28;20340;-51
2022/06/18 11:18:57;;;;;;;3.85;1.70;;;;;;;25.98;40.50;100788.50;5031711;28;20088;-52
2022/06/18 11:21:34;;;;;;;7.75;2.10;;;;;;;26.11;39.89;100802.63;5034689;28;20042;-53
2022/06/18 11:24:09;;;;;;;1.77;1.48;;;;;;;26.21;39.53;100797.50;5033891;28;20120;-50
2022/06/18 11:26:41;;;;;;;6.18;1.75;;;;;;;26.29;39.61;100793.31;5034331;28;20057;-52
2022/06/18 11:29:23;;;;;;;4.05;1.75;;;;;;;26.36;39.08;100793.75;5034899;28;20075;-50
2022/06/18 11:31:54;;;;;;;4.97;1.77;;;;;;;26.41;39.38;100787.13;5034445;28;20045;-51
2022/06/18 11:34:38;;;;;;;1.85;1.35;;;;;;;26.52;38.83;100788.16;5034149;28;20053;-51
2022/06/18 11:37:24;;;;;;;3.92;1.40;;;;;;;26.59;38.47;100789.41;5034655;28;20053;-50
2022/06/18 11:40:02;;;;;;;3.05;1.63;;;;;;;26.66;38.38;100785.34;5030026;28;20355;-50
2022/06/18 11:42:44;;;;;;;2.38;1.65;;;;;;;26.73;37.95;100786.56;5027960;28;20056;-50
2022/06/18 11:45:56;;;;;;;2.63;1.52;;;;;;;26.79;37.73;100780.78;5034329;28;20049;-49
2022/06/18 11:48:31;;;;;;;3.63;1.50;;;;;;;26.81;38.03;100778.84;5025720;28;20050;-49
2022/06/18 11:51:06;;;;;;;4.53;1.70;;;;;;;26.83;37.42;100771.63;5032012;28;20053;-50
2022/06/18 11:53:51;;;;;;;2.63;1.58;;;;;;;26.83;37.09;100776.94;5033304;28;20051;-49
2022/06/18 11:56:29;;;;;;;3.28;1.70;;;;;;;26.85;37.45;100769.69;5033661;28;20049;-51
2022/06/18 11:59:05;;;;;;;3.53;1.50;;;;;;;26.89;37.33;100760.50;5033772;28;20055;-49
2022/06/18 12:01:41;;;;;;;3.83;1.77;;;;;;;26.90;37.00;100751.56;5034062;28;20049;-49
2022/06/18 12:04:21;;;;;;;3.30;1.58;;;;;;;26.93;37.01;100746.00;5034010;28;20051;-51
2022/06/18 12:06:58;;;;;;;2.67;1.60;;;;;;;26.96;36.93;100740.44;5034116;28;20053;-50
2022/06/18 12:09:29;;;;;;;3.17;1.60;;;;;;;26.97;37.29;100742.16;5033160;28;20053;-49
2022/06/18 12:12:21;;;;;;;2.38;1.52;;;;;;;27.01;36.71;100733.00;5033872;28;20057;-49
2022/06/18 12:15:02;;;;;;;5.60;1.92;;;;;;;27.04;36.92;100714.13;5033978;28;20049;-49
2022/06/18 12:17:40;;;;;;;5.05;1.70;;;;;;;27.03;37.11;100720.41;5033625;28;20077;-49
2022/06/18 12:20:25;;;;;;;4.10;1.52;;;;;;;27.08;36.85;100720.09;5032868;28;20045;-49
2022/06/18 12:23:02;;;;;;;;;;;;;;;27.08;37.39;100717.44;5032741;28;20195;-48
2022/06/18 12:26:01;;;;;;;4.90;1.65;;;;;;;27.17;36.87;100710.56;5033243;28;20003;-50